createdAt,value
2023-01-19T00:00:47.409Z,11.02
2023-01-19T00:03:36.925Z,9.77
2023-01-19T00:06:26.341Z,11.00
2023-01-19T00:09:14.117Z,10.10
2023-01-19T00:12:01.820Z,10.70
2023-01-19T00:14:49.547Z,10.75
2023-01-19T00:17:37.101Z,14.90
2023-01-19T00:20:24.434Z,8.30
2023-01-19T00:23:13.884Z,9.30
2023-01-19T00:26:01.538Z,13.05
2023-01-19T00:28:49.744Z,9.63
2023-01-19T00:31:37.632Z,10.55
2023-01-19T00:34:25.685Z,10.15
2023-01-19T00:37:13.577Z,8.85
2023-01-19T00:40:02.858Z,10.35
2023-01-19T00:42:50.978Z,9.57
2023-01-19T00:45:38.791Z,9.73
2023-01-19T00:48:26.208Z,11.90
2023-01-19T00:51:13.816Z,10.27
2023-01-19T00:54:04.802Z,11.63
2023-01-19T00:56:56.526Z,9.50
2023-01-19T00:59:45.574Z,12.30
2023-01-19T01:02:34.109Z,7.32
2023-01-19T01:05:22.623Z,10.60
2023-01-19T01:08:10.554Z,10.18
2023-01-19T01:10:58.396Z,12.30
2023-01-19T01:13:48.066Z,10.93
2023-01-19T01:16:36.229Z,9.82
2023-01-19T01:19:24.163Z,11.13
2023-01-19T01:22:11.954Z,10.13
2023-01-19T01:24:59.673Z,9.93
2023-01-19T01:27:47.450Z,11.02
2023-01-19T01:30:40.096Z,9.77
2023-01-19T01:33:39.852Z,11.23
2023-01-19T01:36:31.871Z,11.68
2023-01-19T01:39:19.857Z,10.60
2023-01-19T01:42:18.803Z,10.65
2023-01-19T01:45:30.900Z,11.88
2023-01-19T01:48:26.936Z,10.63
2023-01-19T01:51:25.416Z,14.90
2023-01-19T01:54:23.170Z,12.60
2023-01-19T01:57:13.276Z,10.82
2023-01-19T02:00:01.128Z,11.50
2023-01-19T02:02:51.345Z,10.00
2023-01-19T02:05:40.547Z,13.73
2023-01-19T02:08:54.267Z,13.02
2023-01-19T02:14:47.517Z,11.80
2023-01-19T02:17:35.046Z,10.38
2023-01-19T02:20:27.020Z,11.00
2023-01-19T02:23:24.879Z,11.13
2023-01-19T02:26:18.723Z,12.98
2023-01-19T02:29:10.753Z,10.55
2023-01-19T02:31:59.799Z,12.80
2023-01-19T02:34:47.528Z,10.95
2023-01-19T02:37:40.127Z,10.07
2023-01-19T02:40:29.288Z,13.35
2023-01-19T02:43:21.243Z,11.98
2023-01-19T02:46:08.780Z,14.68
2023-01-19T02:49:00.319Z,12.15
2023-01-19T02:51:47.867Z,13.07
2023-01-19T02:54:56.013Z,14.55
2023-01-19T02:58:00.788Z,18.77
2023-01-19T03:01:04.784Z,12.57
2023-01-19T03:04:03.709Z,14.35
2023-01-19T03:06:58.877Z,12.93
2023-01-19T03:09:58.558Z,13.60
2023-01-19T03:12:53.285Z,16.83
2023-01-19T03:15:51.096Z,17.55
2023-01-19T03:18:42.759Z,11.35
2023-01-19T03:21:35.442Z,13.05
2023-01-19T03:24:26.361Z,13.35
2023-01-19T03:27:22.048Z,15.43
2023-01-19T03:30:18.496Z,13.32
2023-01-19T03:33:15.749Z,13.07
2023-01-19T03:36:09.809Z,12.38
2023-01-19T03:39:01.056Z,21.85
2023-01-19T03:41:53.974Z,21.23
2023-01-19T03:47:33.418Z,15.10
2023-01-19T03:50:29.575Z,15.00
2023-01-19T03:53:18.894Z,15.02
2023-01-19T03:56:08.450Z,12.95
2023-01-19T03:58:57.006Z,15.68
2023-01-19T04:01:44.611Z,15.45
2023-01-19T04:04:32.455Z,12.85
2023-01-19T04:07:21.141Z,14.55
2023-01-19T04:10:12.573Z,13.77
2023-01-19T04:13:01.304Z,13.75
2023-01-19T04:15:49.029Z,13.50
2023-01-19T04:18:36.646Z,14.35
2023-01-19T04:21:24.349Z,16.02
2023-01-19T04:24:13.324Z,11.00
2023-01-19T04:27:00.724Z,15.05
2023-01-19T04:29:48.177Z,12.40
2023-01-19T04:32:35.649Z,14.38
2023-01-19T04:35:23.616Z,12.93
2023-01-19T04:38:11.183Z,12.30
2023-01-19T04:41:00.028Z,13.15
2023-01-19T04:43:48.029Z,10.63
2023-01-19T04:46:35.798Z,12.70
2023-01-19T04:49:23.100Z,15.00
2023-01-19T04:52:10.867Z,13.27
2023-01-19T04:54:58.580Z,12.75
2023-01-19T04:57:47.746Z,11.05
2023-01-19T05:00:35.959Z,13.55
2023-01-19T05:03:25.712Z,12.32
2023-01-19T05:06:14.113Z,10.98
2023-01-19T05:09:01.759Z,10.45
2023-01-19T05:11:49.193Z,13.18
2023-01-19T05:14:37.844Z,12.65
2023-01-19T05:17:25.366Z,14.60
2023-01-19T05:20:16.382Z,10.73
2023-01-19T05:23:04.400Z,11.68
2023-01-19T05:25:51.766Z,13.20
2023-01-19T05:28:39.064Z,12.20
2023-01-19T05:31:28.091Z,12.63
2023-01-19T05:34:16.376Z,12.18
2023-01-19T05:37:04.099Z,11.88
2023-01-19T05:39:51.565Z,14.25
2023-01-19T05:42:39.397Z,12.18
2023-01-19T05:45:27.715Z,14.40
2023-01-19T05:48:16.647Z,10.98
2023-01-19T05:51:04.949Z,14.77
2023-01-19T05:53:56.134Z,25.58
2023-01-19T05:56:47.162Z,33.03
2023-01-19T05:59:35.199Z,28.58
2023-01-19T06:02:28.497Z,22.35
2023-01-19T06:05:18.329Z,26.45
2023-01-19T06:08:08.833Z,29.77
2023-01-19T06:10:56.781Z,34.80
2023-01-19T06:13:44.435Z,17.33
2023-01-19T06:16:32.003Z,15.15
2023-01-19T06:19:19.847Z,24.75
2023-01-19T06:22:09.710Z,17.20
2023-01-19T06:24:57.014Z,24.75
2023-01-19T06:27:47.589Z,18.70
2023-01-19T06:30:35.076Z,22.35
2023-01-19T06:33:24.337Z,19.48
2023-01-19T06:36:11.910Z,20.85
2023-01-19T06:39:03.256Z,15.35
2023-01-19T06:41:50.788Z,22.88
2023-01-19T06:44:38.226Z,24.60
2023-01-19T06:47:25.697Z,19.00
2023-01-19T06:50:13.491Z,14.95
2023-01-19T06:53:01.293Z,14.93
2023-01-19T06:55:50.626Z,14.88
2023-01-19T06:58:38.639Z,12.88
2023-01-19T07:01:26.923Z,14.75
2023-01-19T07:04:15.224Z,14.55
2023-01-19T07:07:02.602Z,16.38
2023-01-19T07:09:53.650Z,17.88
2023-01-19T07:12:45.083Z,14.05
2023-01-19T07:15:33.142Z,15.15
2023-01-19T07:18:31.929Z,12.52
2023-01-19T07:21:20.199Z,15.27
2023-01-19T07:24:08.327Z,15.85
2023-01-19T07:26:55.981Z,14.13
2023-01-19T07:29:44.916Z,14.07
2023-01-19T07:32:32.337Z,14.52
2023-01-19T07:35:19.934Z,11.90
2023-01-19T07:38:07.197Z,14.95
2023-01-19T07:41:01.838Z,15.25
2023-01-19T07:43:53.012Z,12.10
2023-01-19T07:46:43.332Z,19.38
2023-01-19T07:49:30.827Z,18.15
2023-01-19T07:52:18.443Z,12.63
2023-01-19T07:55:07.258Z,13.05
2023-01-19T07:57:54.935Z,19.88
2023-01-19T08:00:42.361Z,22.92
2023-01-19T08:03:31.284Z,19.65
2023-01-19T08:06:22.855Z,18.48
2023-01-19T08:09:11.659Z,23.00
2023-01-19T08:11:59.017Z,19.05
2023-01-19T08:14:46.532Z,15.32
2023-01-19T08:17:34.156Z,16.67
2023-01-19T08:20:23.366Z,19.17
2023-01-19T08:23:11.557Z,18.25
2023-01-19T08:25:59.138Z,18.63
2023-01-19T08:28:46.721Z,20.65
2023-01-19T08:31:34.731Z,20.02
2023-01-19T08:34:22.681Z,18.63
2023-01-19T08:37:11.440Z,20.30
2023-01-19T08:39:58.898Z,21.25
2023-01-19T08:42:46.677Z,19.40
2023-01-19T08:45:34.288Z,18.20
2023-01-19T08:48:23.766Z,16.85
2023-01-19T08:51:11.725Z,19.73
2023-01-19T08:54:01.004Z,20.35
2023-01-19T08:56:48.687Z,18.63
2023-01-19T08:59:36.933Z,22.40
2023-01-19T09:02:25.183Z,19.80
2023-01-19T09:05:13.282Z,19.80
2023-01-19T09:08:01.067Z,23.38
2023-01-19T09:10:52.859Z,22.08
2023-01-19T09:13:41.221Z,18.15
2023-01-19T09:16:29.348Z,21.92
2023-01-19T09:19:17.128Z,21.67
2023-01-19T09:22:05.974Z,19.52
2023-01-19T09:24:53.682Z,18.42
2023-01-19T09:27:42.759Z,19.90
2023-01-19T09:30:30.760Z,16.63
2023-01-19T09:33:20.800Z,18.65
2023-01-19T09:36:09.195Z,19.13
2023-01-19T09:38:56.862Z,22.52
2023-01-19T09:41:52.264Z,21.30
2023-01-19T09:44:44.659Z,24.10
2023-01-19T09:47:35.853Z,20.02
2023-01-19T09:50:29.889Z,15.98
2023-01-19T09:53:34.740Z,15.52
2023-01-19T09:56:24.697Z,21.30
2023-01-19T09:59:23.512Z,17.02
2023-01-19T10:02:33.876Z,19.92
2023-01-19T10:05:31.718Z,16.20
2023-01-19T10:08:29.752Z,15.10
2023-01-19T10:11:38.093Z,17.20
2023-01-19T10:14:47.052Z,17.63
2023-01-19T10:17:54.825Z,17.60
2023-01-19T10:20:49.898Z,17.52
2023-01-19T10:23:44.078Z,14.75
2023-01-19T10:26:38.501Z,11.88
2023-01-19T10:29:34.479Z,14.15
2023-01-19T10:32:27.909Z,11.63
2023-01-19T10:35:24.223Z,12.40
2023-01-19T10:38:18.240Z,10.40
2023-01-19T10:41:15.740Z,8.88
2023-01-19T10:44:05.515Z,10.65
2023-01-19T10:46:56.759Z,9.55
2023-01-19T10:49:45.894Z,10.55
2023-01-19T10:52:39.848Z,9.30
2023-01-19T10:55:32.061Z,8.27
2023-01-19T10:58:31.018Z,10.25
2023-01-19T11:01:22.036Z,9.88
2023-01-19T11:04:29.772Z,7.82
2023-01-19T11:07:22.484Z,7.97
2023-01-19T11:10:24.115Z,7.78
2023-01-19T11:13:15.834Z,8.98
2023-01-19T11:16:12.220Z,8.38
2023-01-19T11:19:02.060Z,6.78
2023-01-19T11:21:49.771Z,10.40
2023-01-19T11:24:39.974Z,8.68
2023-01-19T11:27:30.871Z,6.40
2023-01-19T11:30:24.847Z,8.25
2023-01-19T11:33:26.942Z,7.15
2023-01-19T11:36:21.079Z,8.23
2023-01-19T11:39:24.933Z,9.32
2023-01-19T11:42:15.607Z,7.57
2023-01-19T11:45:14.431Z,12.85
2023-01-19T11:48:08.289Z,6.82
2023-01-19T11:50:59.584Z,6.80
2023-01-19T11:53:53.404Z,8.73
2023-01-19T11:56:41.735Z,11.05
2023-01-19T11:59:30.272Z,6.05
2023-01-19T12:02:28.363Z,9.60
2023-01-19T12:05:21.075Z,8.90
2023-01-19T12:11:05.764Z,6.55
2023-01-19T12:13:54.670Z,6.63
2023-01-19T12:16:44.775Z,7.45
2023-01-19T12:19:45.020Z,8.35
2023-01-19T12:22:44.007Z,6.00
2023-01-19T12:25:48.423Z,5.20
2023-01-19T12:28:42.516Z,7.35
2023-01-19T12:31:30.415Z,6.43
2023-01-19T12:34:39.921Z,7.75
2023-01-19T12:37:41.463Z,6.93
2023-01-19T12:40:35.060Z,6.90
2023-01-19T12:43:27.058Z,7.13
2023-01-19T12:46:31.821Z,7.80
2023-01-19T12:49:27.990Z,7.75
2023-01-19T12:52:35.067Z,5.47
2023-01-19T12:55:28.157Z,7.05
2023-01-19T12:58:22.690Z,6.13
2023-01-19T13:01:18.297Z,7.10
2023-01-19T13:04:28.262Z,5.13
2023-01-19T13:07:18.058Z,5.25
2023-01-19T13:11:14.000Z,6.13
2023-01-19T13:14:36.323Z,6.20
2023-01-19T13:17:36.949Z,5.45
2023-01-19T13:20:29.444Z,8.80
2023-01-19T13:23:22.462Z,6.28
2023-01-19T13:26:18.010Z,6.60
2023-01-19T13:29:14.720Z,5.45
2023-01-19T13:32:12.927Z,7.65
2023-01-19T13:35:02.178Z,6.05
2023-01-19T13:37:51.775Z,5.00
2023-01-19T13:40:40.391Z,5.00
2023-01-19T13:43:38.549Z,6.72
2023-01-19T13:46:29.180Z,7.97
2023-01-19T13:49:22.300Z,6.50
2023-01-19T13:52:21.908Z,8.15
2023-01-19T13:55:16.693Z,8.55
2023-01-19T13:58:04.266Z,5.72
2023-01-19T14:00:53.798Z,8.98
2023-01-19T14:03:42.536Z,5.53
2023-01-19T14:06:38.748Z,7.00
2023-01-19T14:09:26.702Z,8.10
2023-01-19T14:12:18.618Z,5.65
2023-01-19T14:15:14.207Z,8.68
2023-01-19T14:18:30.020Z,7.47
2023-01-19T14:21:18.592Z,9.38
2023-01-19T14:24:11.206Z,7.65
2023-01-19T14:27:18.269Z,7.75
2023-01-19T14:30:25.251Z,5.70
2023-01-19T14:33:36.548Z,8.18
2023-01-19T14:36:34.560Z,8.18
2023-01-19T14:39:27.396Z,16.75
2023-01-19T14:42:24.742Z,13.07
2023-01-19T14:45:20.730Z,15.82
2023-01-19T14:48:18.419Z,21.90
2023-01-19T14:51:07.536Z,10.88
2023-01-19T14:53:58.995Z,11.68
2023-01-19T14:56:47.741Z,13.20
2023-01-19T14:59:35.645Z,10.63
2023-01-19T15:02:24.098Z,11.48
2023-01-19T15:05:12.229Z,8.93
2023-01-19T15:08:03.752Z,14.40
2023-01-19T15:10:51.474Z,7.75
2023-01-19T15:13:40.217Z,9.57
2023-01-19T15:16:30.870Z,7.93
2023-01-19T15:19:19.033Z,8.52
2023-01-19T15:22:14.722Z,8.40
2023-01-19T15:25:03.751Z,13.05
2023-01-19T15:27:51.334Z,8.98
2023-01-19T15:30:40.405Z,12.68
2023-01-19T15:33:31.403Z,12.45
2023-01-19T15:36:24.197Z,7.70
2023-01-19T15:42:01.524Z,10.23
2023-01-19T15:44:49.181Z,9.68
2023-01-19T15:47:36.840Z,8.43
2023-01-19T15:50:26.988Z,8.57
2023-01-19T15:53:18.040Z,7.78
2023-01-19T15:56:06.603Z,7.63
2023-01-19T15:58:56.957Z,9.70
2023-01-19T16:01:44.371Z,7.63
2023-01-19T16:04:32.434Z,9.88
2023-01-19T16:07:21.066Z,7.60
2023-01-19T16:10:10.549Z,9.25
2023-01-19T16:13:01.095Z,6.82
2023-01-19T16:15:50.286Z,5.57
2023-01-19T16:18:38.076Z,7.72
2023-01-19T16:21:26.364Z,7.25
2023-01-19T16:24:14.380Z,5.97
2023-01-19T16:27:03.876Z,8.65
2023-01-19T16:29:51.983Z,6.25
2023-01-19T16:32:40.933Z,8.45
2023-01-19T16:35:28.545Z,5.32
2023-01-19T16:38:16.529Z,10.73
2023-01-19T16:41:05.299Z,9.48
2023-01-19T16:43:54.345Z,7.05
2023-01-19T16:46:44.706Z,5.68
2023-01-19T16:49:34.206Z,10.20
2023-01-19T16:52:21.918Z,9.27
2023-01-19T16:55:11.296Z,5.75
2023-01-19T16:57:59.026Z,8.00
2023-01-19T17:00:46.498Z,9.45
2023-01-19T17:03:34.558Z,8.77
2023-01-19T17:06:25.677Z,9.25
2023-01-19T17:09:13.629Z,7.78
2023-01-19T17:12:01.359Z,9.18
2023-01-19T17:14:48.988Z,10.50
2023-01-19T17:17:36.778Z,13.15
2023-01-19T17:20:24.227Z,10.93
2023-01-19T17:23:12.927Z,10.40
2023-01-19T17:26:01.012Z,6.80
2023-01-19T17:28:48.933Z,8.00
2023-01-19T17:31:37.457Z,8.20
2023-01-19T17:34:24.805Z,9.40
2023-01-19T17:37:12.375Z,8.82
2023-01-19T17:40:01.752Z,11.13
2023-01-19T17:42:49.510Z,8.48
2023-01-19T17:45:38.500Z,9.13
2023-01-19T17:48:26.171Z,6.90
2023-01-19T17:51:14.511Z,13.32
2023-01-19T17:54:02.636Z,8.77
2023-01-19T17:56:51.709Z,14.43
2023-01-19T17:59:40.911Z,10.43
2023-01-19T18:02:29.062Z,9.50
2023-01-19T18:05:16.985Z,13.98
2023-01-19T18:08:04.809Z,9.57
2023-01-19T18:10:56.046Z,10.23
2023-01-19T18:13:48.170Z,14.38
2023-01-19T18:16:36.847Z,14.02
2023-01-19T18:19:24.728Z,9.98
2023-01-19T18:22:12.299Z,11.27
2023-01-19T18:25:01.871Z,11.45
2023-01-19T18:27:49.569Z,13.48
2023-01-19T18:30:39.204Z,10.15
2023-01-19T18:33:28.084Z,10.45
2023-01-19T18:36:16.781Z,9.98
2023-01-19T18:39:05.055Z,12.60
2023-01-19T18:41:52.871Z,9.20
2023-01-19T18:44:40.294Z,10.82
2023-01-19T18:47:29.339Z,11.02
2023-01-19T18:50:18.191Z,9.75
2023-01-19T18:53:06.499Z,9.20
2023-01-19T18:55:57.285Z,10.60
2023-01-19T18:58:45.719Z,9.52
2023-01-19T19:01:35.052Z,10.02
2023-01-19T19:04:24.085Z,12.95
2023-01-19T19:07:11.486Z,12.63
2023-01-19T19:09:58.867Z,14.63
2023-01-19T19:12:48.132Z,8.32
2023-01-19T19:15:35.951Z,15.45
2023-01-19T19:18:23.559Z,11.60
2023-01-19T19:21:14.317Z,11.10
2023-01-19T19:24:02.062Z,12.10
2023-01-19T19:26:49.682Z,11.30
2023-01-19T19:29:37.067Z,9.02
2023-01-19T19:32:24.514Z,9.77
2023-01-19T19:35:12.444Z,12.52
2023-01-19T19:38:04.449Z,13.43
2023-01-19T19:40:54.390Z,14.75
2023-01-19T19:43:42.372Z,15.13
2023-01-19T19:46:30.030Z,7.38
2023-01-19T19:49:21.337Z,11.30
2023-01-19T19:52:08.868Z,10.13
2023-01-19T19:55:00.686Z,10.80
2023-01-19T19:57:50.555Z,10.80
2023-01-19T20:00:38.579Z,8.68
2023-01-19T20:03:30.865Z,10.23
2023-01-19T20:06:22.127Z,7.72
2023-01-19T20:09:12.709Z,10.10
2023-01-19T20:12:01.804Z,10.68
2023-01-19T20:14:49.314Z,9.05
2023-01-19T20:17:37.252Z,6.63
2023-01-19T20:20:25.626Z,8.95
2023-01-19T20:23:13.119Z,10.98
2023-01-19T20:26:06.263Z,9.88
2023-01-19T20:28:59.661Z,11.90
2023-01-19T20:31:50.332Z,10.35
2023-01-19T20:34:38.629Z,11.52
2023-01-19T20:37:26.794Z,11.57
2023-01-19T20:40:14.386Z,14.98
2023-01-19T20:43:03.905Z,6.45
2023-01-19T20:45:53.433Z,13.55
2023-01-19T20:48:41.265Z,8.82
2023-01-19T20:51:29.271Z,10.73
2023-01-19T20:54:20.368Z,10.07
2023-01-19T20:57:07.913Z,10.57
2023-01-19T20:59:55.814Z,10.23
2023-01-19T21:02:45.040Z,8.73
2023-01-19T21:05:32.346Z,11.75
2023-01-19T21:08:19.806Z,9.27
2023-01-19T21:11:08.240Z,8.20
2023-01-19T21:13:57.673Z,13.05
2023-01-19T21:16:45.159Z,14.75
2023-01-19T21:19:33.967Z,14.73
2023-01-19T21:22:21.344Z,9.18
2023-01-19T21:25:09.796Z,10.60
2023-01-19T21:27:57.222Z,12.68
2023-01-19T21:30:45.079Z,13.63
2023-01-19T21:33:33.965Z,10.60
2023-01-19T21:36:23.926Z,12.15
2023-01-19T21:39:11.700Z,8.43
2023-01-19T21:41:59.356Z,17.08
2023-01-19T21:44:47.214Z,7.93
2023-01-19T21:47:36.338Z,8.68
2023-01-19T21:50:23.855Z,20.35
2023-01-19T21:53:12.879Z,15.85
2023-01-19T21:56:00.653Z,17.05
2023-01-19T21:59:39.512Z,12.15
2023-01-19T22:02:38.316Z,31.63
2023-01-19T22:05:27.090Z,15.10
2023-01-19T22:08:14.647Z,15.30
2023-01-19T22:11:07.275Z,12.38
2023-01-19T22:13:55.638Z,13.65
2023-01-19T22:16:45.041Z,15.15
2023-01-19T22:19:32.624Z,11.80
2023-01-19T22:22:20.583Z,15.13
2023-01-19T22:25:09.252Z,13.90
2023-01-19T22:27:58.576Z,12.48
2023-01-19T22:30:46.383Z,11.27
2023-01-19T22:33:35.799Z,15.07
2023-01-19T22:36:25.282Z,12.05
2023-01-19T22:39:14.278Z,13.00
2023-01-19T22:42:02.178Z,12.85
2023-01-19T22:44:49.932Z,9.73
2023-01-19T22:47:37.788Z,10.75
2023-01-19T22:50:27.119Z,9.60
2023-01-19T22:53:15.176Z,10.13
2023-01-19T22:56:10.696Z,10.63
2023-01-19T22:58:59.641Z,12.18
2023-01-19T23:01:47.617Z,12.32
2023-01-19T23:04:35.624Z,11.27
2023-01-19T23:07:25.117Z,16.02
2023-01-19T23:10:13.420Z,10.90
2023-01-19T23:13:01.471Z,10.27
2023-01-19T23:15:49.605Z,11.98
2023-01-19T23:18:37.585Z,10.77
2023-01-19T23:21:27.574Z,12.82
2023-01-19T23:24:16.820Z,13.75
2023-01-19T23:27:04.740Z,10.45
2023-01-19T23:29:53.797Z,9.77
2023-01-19T23:32:41.505Z,10.70
2023-01-19T23:35:29.498Z,10.40
2023-01-19T23:38:17.440Z,9.75
2023-01-19T23:41:07.354Z,8.85
2023-01-19T23:43:55.386Z,14.25
2023-01-19T23:46:44.280Z,11.43
2023-01-19T23:49:32.057Z,11.80
2023-01-19T23:52:20.162Z,13.75
2023-01-19T23:55:08.897Z,13.10
2023-01-19T23:57:57.961Z,13.50
